createdAt,value
2023-02-07T00:00:57.104Z,7.32
2023-02-07T00:03:24.407Z,7.32
2023-02-07T00:05:51.706Z,6.63
2023-02-07T00:08:18.935Z,7.50
2023-02-07T00:10:46.126Z,6.85
2023-02-07T00:13:13.370Z,6.78
2023-02-07T00:15:40.573Z,6.85
2023-02-07T00:18:07.871Z,6.97
2023-02-07T00:20:35.258Z,6.38
2023-02-07T00:23:02.521Z,6.85
2023-02-07T00:25:29.737Z,7.10
2023-02-07T00:27:57.078Z,6.97
2023-02-07T00:30:24.446Z,6.78
2023-02-07T00:32:51.711Z,7.45
2023-02-07T00:35:18.985Z,7.13
2023-02-07T00:37:46.239Z,7.30
2023-02-07T00:40:13.548Z,7.53
2023-02-07T00:42:40.809Z,6.75
2023-02-07T00:45:08.906Z,7.43
2023-02-07T00:47:36.174Z,7.00
2023-02-07T00:50:03.405Z,7.43
2023-02-07T00:52:30.675Z,7.50
2023-02-07T00:54:57.926Z,6.85
2023-02-07T00:57:25.262Z,7.18
2023-02-07T00:59:52.474Z,7.47
2023-02-07T01:02:19.707Z,7.57
2023-02-07T01:04:46.952Z,7.75
2023-02-07T01:07:14.214Z,7.63
2023-02-07T01:09:42.519Z,7.35
2023-02-07T01:12:10.096Z,7.57
2023-02-07T01:14:37.407Z,7.20
2023-02-07T01:17:04.633Z,6.93
2023-02-07T01:19:31.893Z,7.45
2023-02-07T01:22:02.947Z,7.57
2023-02-07T01:24:30.960Z,7.18
2023-02-07T01:26:58.186Z,7.85
2023-02-07T01:29:25.499Z,7.43
2023-02-07T01:31:53.855Z,7.13
2023-02-07T01:34:21.073Z,7.75
2023-02-07T01:36:48.350Z,7.80
2023-02-07T01:39:15.642Z,7.22
2023-02-07T01:41:42.915Z,7.00
2023-02-07T01:44:22.850Z,6.70
2023-02-07T01:46:50.942Z,6.95
2023-02-07T01:49:20.475Z,6.65
2023-02-07T01:54:15.458Z,6.63
2023-02-07T01:56:45.135Z,6.57
2023-02-07T01:59:12.836Z,6.72
2023-02-07T02:01:40.970Z,6.68
2023-02-07T02:04:08.165Z,6.60
2023-02-07T02:06:35.876Z,6.35
2023-02-07T02:09:08.474Z,6.28
2023-02-07T02:11:54.253Z,6.50
2023-02-07T02:14:44.548Z,6.47
2023-02-07T02:17:15.302Z,6.47
2023-02-07T02:19:58.406Z,5.82
2023-02-07T02:22:25.592Z,6.28
2023-02-07T02:24:55.796Z,5.85
2023-02-07T02:27:43.305Z,6.00
2023-02-07T02:30:16.381Z,5.47
2023-02-07T02:32:49.874Z,6.20
2023-02-07T02:35:32.587Z,5.82
2023-02-07T02:38:18.124Z,5.90
2023-02-07T02:40:57.980Z,5.88
2023-02-07T02:43:36.846Z,6.13
2023-02-07T02:46:07.847Z,5.43
2023-02-07T02:48:35.432Z,5.82
2023-02-07T02:51:02.839Z,6.43
2023-02-07T02:53:30.119Z,5.75
2023-02-07T02:56:01.667Z,5.80
2023-02-07T02:58:43.917Z,6.65
2023-02-07T03:01:28.178Z,6.57
2023-02-07T03:03:59.575Z,6.03
2023-02-07T03:06:45.664Z,6.38
2023-02-07T03:09:32.460Z,5.80
2023-02-07T03:12:20.108Z,6.18
2023-02-07T03:14:56.427Z,6.22
2023-02-07T03:17:27.045Z,6.43
2023-02-07T03:20:14.548Z,6.30
2023-02-07T03:22:42.707Z,6.53
2023-02-07T03:25:10.710Z,6.97
2023-02-07T03:27:39.329Z,6.53
2023-02-07T03:30:09.251Z,6.60
2023-02-07T03:32:42.196Z,6.78
2023-02-07T03:35:09.488Z,6.38
2023-02-07T03:37:38.730Z,6.85
2023-02-07T03:40:06.456Z,6.97
2023-02-07T03:42:39.448Z,6.72
2023-02-07T03:45:08.837Z,6.63
2023-02-07T03:47:36.126Z,6.18
2023-02-07T03:50:03.606Z,6.60
2023-02-07T03:52:30.850Z,7.00
2023-02-07T03:54:58.078Z,6.60
2023-02-07T03:57:25.366Z,6.72
2023-02-07T03:59:53.995Z,6.88
2023-02-07T04:02:21.309Z,6.82
2023-02-07T04:04:48.551Z,6.55
2023-02-07T04:07:15.835Z,6.18
2023-02-07T04:09:43.177Z,6.55
2023-02-07T04:12:10.477Z,7.45
2023-02-07T04:14:37.792Z,6.85
2023-02-07T04:17:05.034Z,6.82
2023-02-07T04:19:32.386Z,6.97
2023-02-07T04:21:59.644Z,6.93
2023-02-07T04:24:26.990Z,7.15
2023-02-07T04:26:54.250Z,6.43
2023-02-07T04:29:21.545Z,6.88
2023-02-07T04:31:48.821Z,6.63
2023-02-07T04:34:16.251Z,7.05
2023-02-07T04:36:43.633Z,7.35
2023-02-07T04:39:10.874Z,7.13
2023-02-07T04:41:38.174Z,6.97
2023-02-07T04:44:05.535Z,7.18
2023-02-07T04:46:32.825Z,6.65
2023-02-07T04:49:00.038Z,7.00
2023-02-07T04:51:27.259Z,7.10
2023-02-07T04:53:54.465Z,6.00
2023-02-07T04:56:21.818Z,7.45
2023-02-07T04:58:49.402Z,6.88
2023-02-07T05:01:16.685Z,7.25
2023-02-07T05:03:44.359Z,6.95
2023-02-07T05:06:11.905Z,7.03
2023-02-07T05:08:39.284Z,6.47
2023-02-07T05:11:06.547Z,7.53
2023-02-07T05:13:33.865Z,6.70
2023-02-07T05:16:04.092Z,7.20
2023-02-07T05:18:31.396Z,8.00
2023-02-07T05:20:58.726Z,7.70
2023-02-07T05:23:26.004Z,7.18
2023-02-07T05:25:53.404Z,6.93
2023-02-07T05:28:20.922Z,7.15
2023-02-07T05:30:48.398Z,7.90
2023-02-07T05:33:15.762Z,7.30
2023-02-07T05:35:46.234Z,7.47
2023-02-07T05:38:15.349Z,7.95
2023-02-07T05:40:43.269Z,7.32
2023-02-07T05:43:11.215Z,7.22
2023-02-07T05:45:38.758Z,7.43
2023-02-07T05:48:06.342Z,7.22
2023-02-07T05:50:34.664Z,7.38
2023-02-07T05:53:06.452Z,9.18
2023-02-07T05:55:33.676Z,7.85
2023-02-07T05:58:01.006Z,7.75
2023-02-07T06:00:28.290Z,7.18
2023-02-07T06:02:56.009Z,7.13
2023-02-07T06:05:24.788Z,7.22
2023-02-07T06:07:52.212Z,8.00
2023-02-07T06:10:19.578Z,7.63
2023-02-07T06:12:46.843Z,8.45
2023-02-07T06:15:14.150Z,7.85
2023-02-07T06:17:41.434Z,8.23
2023-02-07T06:20:09.057Z,8.43
2023-02-07T06:22:36.354Z,7.50
2023-02-07T06:25:03.886Z,8.07
2023-02-07T06:27:31.177Z,8.63
2023-02-07T06:29:58.482Z,7.80
2023-02-07T06:32:25.742Z,7.72
2023-02-07T06:34:53.033Z,8.27
2023-02-07T06:37:20.308Z,8.32
2023-02-07T06:39:47.784Z,7.60
2023-02-07T06:42:15.028Z,7.50
2023-02-07T06:44:42.221Z,10.07
2023-02-07T06:47:09.452Z,9.73
2023-02-07T06:49:36.736Z,10.20
2023-02-07T06:52:04.030Z,8.93
2023-02-07T06:54:31.279Z,8.75
2023-02-07T06:56:58.816Z,8.55
2023-02-07T06:59:26.097Z,7.88
2023-02-07T07:01:53.385Z,8.20
2023-02-07T07:04:20.886Z,8.02
2023-02-07T07:06:48.401Z,7.82
2023-02-07T07:09:15.723Z,8.80
2023-02-07T07:11:44.188Z,9.10
2023-02-07T07:14:12.124Z,10.00
2023-02-07T07:16:40.836Z,11.15
2023-02-07T07:19:08.272Z,10.27
2023-02-07T07:21:35.802Z,10.15
2023-02-07T07:24:03.089Z,9.07
2023-02-07T07:26:43.037Z,9.55
2023-02-07T07:29:16.036Z,8.52
2023-02-07T07:31:43.344Z,8.90
2023-02-07T07:34:10.662Z,9.10
2023-02-07T07:36:37.933Z,8.82
2023-02-07T07:39:05.896Z,9.20
2023-02-07T07:41:33.149Z,9.63
2023-02-07T07:44:00.612Z,8.90
2023-02-07T07:46:27.970Z,8.57
2023-02-07T07:48:55.255Z,9.02
2023-02-07T07:51:22.623Z,9.30
2023-02-07T07:53:49.898Z,8.93
2023-02-07T07:56:17.251Z,9.70
2023-02-07T07:58:44.486Z,9.52
2023-02-07T08:01:11.768Z,8.38
2023-02-07T08:03:39.118Z,9.52
2023-02-07T08:06:06.601Z,9.00
2023-02-07T08:08:34.074Z,8.82
2023-02-07T08:11:02.495Z,10.00
2023-02-07T08:13:33.012Z,9.75
2023-02-07T08:16:01.209Z,9.55
2023-02-07T08:18:29.067Z,9.38
2023-02-07T08:20:56.513Z,8.70
2023-02-07T08:23:23.817Z,8.73
2023-02-07T08:25:51.457Z,10.50
2023-02-07T08:28:19.245Z,9.55
2023-02-07T08:30:49.554Z,9.23
2023-02-07T08:33:17.325Z,10.35
2023-02-07T08:35:44.608Z,12.25
2023-02-07T08:38:11.902Z,11.73
2023-02-07T08:40:39.644Z,11.10
2023-02-07T08:43:12.343Z,11.70
2023-02-07T08:45:43.823Z,9.88
2023-02-07T08:48:11.191Z,10.93
2023-02-07T08:50:38.656Z,10.80
2023-02-07T08:53:06.174Z,10.45
2023-02-07T08:55:33.406Z,9.65
2023-02-07T08:58:00.743Z,10.75
2023-02-07T09:00:27.983Z,10.55
2023-02-07T09:02:55.218Z,10.73
2023-02-07T09:05:22.445Z,10.25
2023-02-07T09:07:49.733Z,10.48
2023-02-07T09:10:16.973Z,9.82
2023-02-07T09:12:44.389Z,9.85
2023-02-07T09:15:11.705Z,10.00
2023-02-07T09:17:39.072Z,9.57
2023-02-07T09:20:06.567Z,9.65
2023-02-07T09:22:53.836Z,9.60
2023-02-07T09:25:21.141Z,9.50
2023-02-07T09:27:48.478Z,9.23
2023-02-07T09:30:15.986Z,9.65
2023-02-07T09:32:43.241Z,8.98
2023-02-07T09:35:11.010Z,8.38
2023-02-07T09:37:48.828Z,9.52
2023-02-07T09:40:19.858Z,9.60
2023-02-07T09:42:53.346Z,8.52
2023-02-07T09:45:22.458Z,9.38
2023-02-07T09:47:52.072Z,9.70
2023-02-07T09:52:50.266Z,8.40
2023-02-07T09:55:25.450Z,7.93
2023-02-07T09:57:56.226Z,8.23
2023-02-07T10:00:31.626Z,7.60
2023-02-07T10:03:06.458Z,7.38
2023-02-07T10:05:37.753Z,7.93
2023-02-07T10:08:05.079Z,8.30
2023-02-07T10:10:37.114Z,8.00
2023-02-07T10:13:11.848Z,7.53
2023-02-07T10:15:42.662Z,7.20
2023-02-07T10:18:30.208Z,6.93
2023-02-07T10:21:16.606Z,6.75
2023-02-07T10:23:43.853Z,7.00
2023-02-07T10:26:29.934Z,6.72
2023-02-07T10:29:04.152Z,6.50
2023-02-07T10:31:32.741Z,7.32
2023-02-07T10:34:11.488Z,6.55
2023-02-07T10:36:40.009Z,6.07
2023-02-07T10:39:09.753Z,5.95
2023-02-07T10:41:39.308Z,6.25
2023-02-07T10:44:09.453Z,6.47
2023-02-07T10:46:37.065Z,5.97
2023-02-07T10:49:04.325Z,5.85
2023-02-07T10:51:34.672Z,5.13
2023-02-07T10:54:02.583Z,5.28
2023-02-07T10:56:31.438Z,5.30
2023-02-07T10:58:58.961Z,4.80
2023-02-07T11:01:27.688Z,4.70
2023-02-07T11:03:55.323Z,4.50
2023-02-07T11:06:40.891Z,4.38
2023-02-07T11:09:12.036Z,4.22
2023-02-07T11:11:40.705Z,4.60
2023-02-07T11:14:08.956Z,4.20
2023-02-07T11:16:36.351Z,4.25
2023-02-07T11:19:05.175Z,4.03
2023-02-07T11:21:39.184Z,4.25
2023-02-07T11:24:15.185Z,4.05
2023-02-07T11:26:53.587Z,4.45
2023-02-07T11:29:21.379Z,3.83
2023-02-07T11:31:49.777Z,4.30
2023-02-07T11:34:31.628Z,4.28
2023-02-07T11:37:17.341Z,4.15
2023-02-07T11:39:45.269Z,4.25
2023-02-07T11:42:14.884Z,4.43
2023-02-07T11:47:12.823Z,3.75
2023-02-07T11:49:45.610Z,4.20
2023-02-07T11:52:13.502Z,4.03
2023-02-07T11:54:41.516Z,4.00
2023-02-07T11:57:13.348Z,3.80
2023-02-07T11:59:49.644Z,3.60
2023-02-07T12:02:16.894Z,3.75
2023-02-07T12:04:44.298Z,3.70
2023-02-07T12:07:25.766Z,3.85
2023-02-07T12:10:04.618Z,3.70
2023-02-07T12:12:34.617Z,3.88
2023-02-07T12:15:07.878Z,3.88
2023-02-07T12:17:57.177Z,4.13
2023-02-07T12:20:33.261Z,3.97
2023-02-07T12:25:52.888Z,3.55
2023-02-07T12:28:27.926Z,3.78
2023-02-07T12:30:57.971Z,3.50
2023-02-07T12:33:34.270Z,3.47
2023-02-07T12:36:05.102Z,3.63
2023-02-07T12:38:37.853Z,3.78
2023-02-07T12:41:15.464Z,3.90
2023-02-07T12:43:51.511Z,3.90
2023-02-07T12:46:37.475Z,4.10
2023-02-07T12:49:04.791Z,3.90
2023-02-07T12:51:38.094Z,3.80
2023-02-07T12:54:20.831Z,3.58
2023-02-07T12:56:48.025Z,3.92
2023-02-07T12:59:35.486Z,4.13
2023-02-07T13:02:15.032Z,5.10
2023-02-07T13:05:01.239Z,5.65
2023-02-07T13:07:37.546Z,5.82
2023-02-07T13:10:23.643Z,5.05
2023-02-07T13:13:07.122Z,5.10
2023-02-07T13:16:00.372Z,5.15
2023-02-07T13:18:42.919Z,4.30
2023-02-07T13:23:38.918Z,3.90
2023-02-07T13:26:24.967Z,4.25
2023-02-07T13:28:58.010Z,4.40
2023-02-07T13:31:38.015Z,4.35
2023-02-07T13:34:05.498Z,3.83
2023-02-07T13:36:38.180Z,3.90
2023-02-07T13:39:21.546Z,3.28
2023-02-07T13:41:48.758Z,4.05
2023-02-07T13:44:20.447Z,4.25
2023-02-07T13:47:06.525Z,3.60
2023-02-07T13:49:41.714Z,3.60
2023-02-07T13:52:19.370Z,3.45
2023-02-07T13:55:13.105Z,3.55
2023-02-07T13:58:00.105Z,3.20
2023-02-07T14:00:29.124Z,3.38
2023-02-07T14:02:58.756Z,3.30
2023-02-07T14:05:26.016Z,3.03
2023-02-07T14:07:56.336Z,3.17
2023-02-07T14:10:46.971Z,3.50
2023-02-07T14:13:31.593Z,2.92
2023-02-07T14:16:25.110Z,3.20
2023-02-07T14:18:53.490Z,3.28
2023-02-07T14:21:21.170Z,3.15
2023-02-07T14:24:16.907Z,4.30
2023-02-07T14:26:58.582Z,5.03
2023-02-07T14:29:27.579Z,3.95
2023-02-07T14:31:59.885Z,3.90
2023-02-07T14:34:50.169Z,3.92
2023-02-07T14:37:38.028Z,4.15
2023-02-07T14:40:09.607Z,3.80
2023-02-07T14:42:37.044Z,4.47
2023-02-07T14:45:04.638Z,4.20
2023-02-07T14:47:32.184Z,4.35
2023-02-07T14:50:00.791Z,4.18
2023-02-07T14:52:30.938Z,4.18
2023-02-07T14:55:17.920Z,4.68
2023-02-07T14:57:57.212Z,4.95
2023-02-07T15:00:31.300Z,4.68
2023-02-07T15:03:02.986Z,4.97
2023-02-07T15:05:30.331Z,4.93
2023-02-07T15:08:07.405Z,4.88
2023-02-07T15:10:41.915Z,5.18
2023-02-07T15:13:20.630Z,4.78
2023-02-07T15:15:51.268Z,5.05
2023-02-07T15:18:19.637Z,4.68
2023-02-07T15:20:54.188Z,4.88
2023-02-07T15:23:22.369Z,4.47
2023-02-07T15:25:49.772Z,4.15
2023-02-07T15:28:28.059Z,4.57
2023-02-07T15:31:15.790Z,4.88
2023-02-07T15:33:51.251Z,4.38
2023-02-07T15:36:45.795Z,4.43
2023-02-07T15:39:18.217Z,4.65
2023-02-07T15:41:46.760Z,4.50
2023-02-07T15:44:26.134Z,4.90
2023-02-07T15:46:54.950Z,4.70
2023-02-07T15:49:26.917Z,5.40
2023-02-07T15:51:55.474Z,4.90
2023-02-07T15:54:23.318Z,5.13
2023-02-07T15:56:56.569Z,5.10
2023-02-07T15:59:24.115Z,4.90
2023-02-07T16:01:52.628Z,5.47
2023-02-07T16:04:19.948Z,5.30
2023-02-07T16:07:10.612Z,5.50
2023-02-07T16:09:45.042Z,4.93
2023-02-07T16:12:31.979Z,5.05
2023-02-07T16:15:00.195Z,5.50
2023-02-07T16:17:37.823Z,5.45
2023-02-07T16:20:05.170Z,4.68
2023-02-07T16:22:32.910Z,4.80
2023-02-07T16:25:01.478Z,4.80
2023-02-07T16:27:31.787Z,4.93
2023-02-07T16:29:59.984Z,5.22
2023-02-07T16:32:31.637Z,4.80
2023-02-07T16:35:00.373Z,4.85
2023-02-07T16:37:28.615Z,4.75
2023-02-07T16:39:55.986Z,4.72
2023-02-07T16:42:23.218Z,5.07
2023-02-07T16:44:50.477Z,5.10
2023-02-07T16:47:18.641Z,5.45
2023-02-07T16:49:46.336Z,4.93
2023-02-07T16:52:13.831Z,5.53
2023-02-07T16:54:41.326Z,5.82
2023-02-07T16:57:10.928Z,5.75
2023-02-07T16:59:38.314Z,6.60
2023-02-07T17:02:11.977Z,5.60
2023-02-07T17:04:39.185Z,6.28
2023-02-07T17:07:06.437Z,6.38
2023-02-07T17:09:33.739Z,7.07
2023-02-07T17:12:01.034Z,6.03
2023-02-07T17:14:28.762Z,6.35
2023-02-07T17:16:56.735Z,6.10
2023-02-07T17:19:27.287Z,7.25
2023-02-07T17:21:56.552Z,6.25
2023-02-07T17:24:23.965Z,6.22
2023-02-07T17:26:53.158Z,5.88
2023-02-07T17:29:20.615Z,6.00
2023-02-07T17:31:48.821Z,5.70
2023-02-07T17:34:16.188Z,5.70
2023-02-07T17:36:46.227Z,6.30
2023-02-07T17:39:14.147Z,5.55
2023-02-07T17:41:41.471Z,5.20
2023-02-07T17:44:08.803Z,5.50
2023-02-07T17:46:36.107Z,5.55
2023-02-07T17:49:03.335Z,5.63
2023-02-07T17:51:30.597Z,5.35
2023-02-07T17:53:57.876Z,5.43
2023-02-07T17:56:29.328Z,5.47
2023-02-07T17:58:57.871Z,5.82
2023-02-07T18:01:25.182Z,5.75
2023-02-07T18:03:54.639Z,5.68
2023-02-07T18:06:23.732Z,5.72
2023-02-07T18:08:51.329Z,5.47
2023-02-07T18:11:18.647Z,5.50
2023-02-07T18:13:47.451Z,5.53
2023-02-07T18:16:15.741Z,5.57
2023-02-07T18:18:43.112Z,5.43
2023-02-07T18:21:12.610Z,5.15
2023-02-07T18:23:42.808Z,5.28
2023-02-07T18:26:15.057Z,5.28
2023-02-07T18:28:43.122Z,5.55
2023-02-07T18:31:14.912Z,5.38
2023-02-07T18:33:42.212Z,5.60
2023-02-07T18:36:09.765Z,5.70
2023-02-07T18:38:37.335Z,6.22
2023-02-07T18:41:11.025Z,6.07
2023-02-07T18:43:39.354Z,6.60
2023-02-07T18:46:10.352Z,6.82
2023-02-07T18:48:38.047Z,6.75
2023-02-07T18:51:10.335Z,7.63
2023-02-07T18:53:37.934Z,7.55
2023-02-07T18:56:12.609Z,7.50
2023-02-07T18:58:39.927Z,7.22
2023-02-07T19:01:10.889Z,7.40
2023-02-07T19:03:38.569Z,7.38
2023-02-07T19:06:06.503Z,7.13
2023-02-07T19:08:33.844Z,7.65
2023-02-07T19:11:02.897Z,7.72
2023-02-07T19:13:30.643Z,7.68
2023-02-07T19:16:03.753Z,7.88
2023-02-07T19:18:31.098Z,7.20
2023-02-07T19:21:02.954Z,7.18
2023-02-07T19:23:30.219Z,7.80
2023-02-07T19:25:57.475Z,7.30
2023-02-07T19:28:24.852Z,7.93
2023-02-07T19:30:52.413Z,7.35
2023-02-07T19:33:19.796Z,7.63
2023-02-07T19:35:47.666Z,7.30
2023-02-07T19:38:15.624Z,7.50
2023-02-07T19:40:43.578Z,8.35
2023-02-07T19:43:10.825Z,7.75
2023-02-07T19:45:38.659Z,7.68
2023-02-07T19:48:06.025Z,8.07
2023-02-07T19:50:33.327Z,7.72
2023-02-07T19:53:00.642Z,7.80
2023-02-07T19:55:27.935Z,8.18
2023-02-07T19:57:55.260Z,9.00
2023-02-07T20:00:22.487Z,8.77
2023-02-07T20:02:49.727Z,9.00
2023-02-07T20:05:16.947Z,10.45
2023-02-07T20:07:44.310Z,10.60
2023-02-07T20:10:12.621Z,10.60
2023-02-07T20:12:39.930Z,10.40
2023-02-07T20:15:07.305Z,11.85
2023-02-07T20:17:35.701Z,11.48
2023-02-07T20:20:03.082Z,11.45
2023-02-07T20:22:30.439Z,11.88
2023-02-07T20:24:57.743Z,10.93
2023-02-07T20:27:24.941Z,10.77
2023-02-07T20:29:52.347Z,11.70
2023-02-07T20:32:19.775Z,11.27
2023-02-07T20:34:47.086Z,10.88
2023-02-07T20:37:14.392Z,11.98
2023-02-07T20:39:41.660Z,11.52
2023-02-07T20:42:09.043Z,11.18
2023-02-07T20:44:36.543Z,10.65
2023-02-07T20:47:04.824Z,10.52
2023-02-07T20:49:32.395Z,10.13
2023-02-07T20:52:00.049Z,10.10
2023-02-07T20:54:28.311Z,9.05
2023-02-07T20:56:56.256Z,8.77
2023-02-07T20:59:25.023Z,8.82
2023-02-07T21:01:52.495Z,9.40
2023-02-07T21:04:19.760Z,9.23
2023-02-07T21:06:47.020Z,8.98
2023-02-07T21:09:14.610Z,8.23
2023-02-07T21:11:43.542Z,9.80
2023-02-07T21:14:15.700Z,8.50
2023-02-07T21:16:43.066Z,9.30
2023-02-07T21:19:10.580Z,9.90
2023-02-07T21:21:37.928Z,8.40
2023-02-07T21:24:05.383Z,9.32
2023-02-07T21:26:32.619Z,9.27
2023-02-07T21:29:00.713Z,8.75
2023-02-07T21:31:28.504Z,8.85
2023-02-07T21:33:55.797Z,9.13
2023-02-07T21:36:24.531Z,8.52
2023-02-07T21:38:53.012Z,8.65
2023-02-07T21:41:21.760Z,8.13
2023-02-07T21:43:49.266Z,8.27
2023-02-07T21:46:18.392Z,8.48
2023-02-07T21:48:47.349Z,8.77
2023-02-07T21:51:19.266Z,8.13
2023-02-07T21:53:46.826Z,8.63
2023-02-07T21:56:15.918Z,8.23
2023-02-07T21:58:43.711Z,8.80
2023-02-07T22:01:12.438Z,8.48
2023-02-07T22:03:41.742Z,8.50
2023-02-07T22:06:09.708Z,8.73
2023-02-07T22:08:37.615Z,9.18
2023-02-07T22:11:05.647Z,9.63
2023-02-07T22:13:33.419Z,9.68
2023-02-07T22:16:01.077Z,10.88
2023-02-07T22:18:28.667Z,10.93
2023-02-07T22:20:56.173Z,11.80
2023-02-07T22:23:23.375Z,11.35
2023-02-07T22:25:52.377Z,11.35
2023-02-07T22:28:19.646Z,11.77
2023-02-07T22:30:47.401Z,11.73
2023-02-07T22:33:15.070Z,11.43
2023-02-07T22:35:43.526Z,10.70
2023-02-07T22:38:11.874Z,11.80
2023-02-07T22:40:39.831Z,10.40
2023-02-07T22:43:08.226Z,10.63
2023-02-07T22:45:39.291Z,10.88
2023-02-07T22:48:07.061Z,10.82
2023-02-07T22:50:34.263Z,10.68
2023-02-07T22:53:01.555Z,10.48
2023-02-07T22:55:28.771Z,10.38
2023-02-07T22:57:57.189Z,10.77
2023-02-07T23:00:24.759Z,9.57
2023-02-07T23:02:52.027Z,10.30
2023-02-07T23:05:19.365Z,10.27
2023-02-07T23:07:48.217Z,10.07
2023-02-07T23:10:15.785Z,10.00
2023-02-07T23:12:43.787Z,10.05
2023-02-07T23:15:11.155Z,10.60
2023-02-07T23:17:38.710Z,10.43
2023-02-07T23:20:06.357Z,10.02
2023-02-07T23:22:36.360Z,9.63
2023-02-07T23:25:03.636Z,9.43
2023-02-07T23:27:30.870Z,9.95
2023-02-07T23:29:58.181Z,9.88
2023-02-07T23:32:25.382Z,9.80
2023-02-07T23:34:52.694Z,10.40
2023-02-07T23:37:22.341Z,10.27
2023-02-07T23:39:49.582Z,10.13
2023-02-07T23:42:16.820Z,10.90
2023-02-07T23:44:44.068Z,10.88
2023-02-07T23:47:11.311Z,11.00
2023-02-07T23:49:38.722Z,10.45
2023-02-07T23:52:05.957Z,10.27
2023-02-07T23:54:33.257Z,10.65
2023-02-07T23:57:00.476Z,10.88
2023-02-07T23:59:27.795Z,11.25
